Loisir ou Compétition : Rejoignez un Club de la Fédération

Résultats

LA BUCHERONNE

MEGEVE

MASS Hommes

Jury de Compétition

Délégué Technique :
RAVANEL ROGER (MB)
D.T. Adjoint :
 
Dir. Epreuve :
FOSSOUD GILLES (MB)

Caractéristiques de la Piste

Piste :
PISTE DU MAZ
Distance :
5 km
Point Haut :
1400 m
Point Bas :
1310 m
Montée Tot. :
270 m
Montée Max. :
80 m
Homologation :
520020097

Pénalité Appliquée :
 
Coefficient :
 

Catégorie :
MIN
Style :
L

08/01/06 - FMBM0264

CltDosClt/CatCodeAnNom PrénomComClubTempsEcartPoints
11891/MINFFS22942811992VERNEY CHARLYMBSC GD BORNAN16:23.900:00.0
21512/MINFFS26019601992GRENIER CLEMENTMBCS ARGENTIER16:57.800:33.9
31613/MINFFS23245301992AGNELLET GERARDMBCS LA CLUSAZ17:12.400:48.5
41804/MINFFS26239571992VERNAZ PIEMONT JULIENMBSC ABONDANCE17:21.300:57.4
51855/MINFFS26132161992PESSEY OSCARMBSC GD BORNAN17:35.101:11.2
61526/MINFFS26140641992DUPERREX LUCASMBCS CHAMONIX17:36.401:12.5
71887/MINFFS26132131992PERRILLAT LUCMBSC GD BORNAN17:51.501:27.6
81938/MINFFS26164611992REYNARD BASTIENMBSCNP ROCHOIS17:58.701:34.8
91729/MINFFS26029981993VIEVILLE NICOLASMBLES HOUCHES18:07.701:43.8
1015910/MINFFS23544771993EKSTEROWICZ GAETANMBCS LA CLUSAZ18:09.701:45.8
1119211/MINFFS26218741993PHILIPPOT MICKAELMBSCNP ROCHOIS18:10.601:46.7
1215412/MINFFS26140691992CLAUDON MAXIMEMBCS CHAMONIX18:17.601:53.7
1317913/MINFFS23236071992BOUCHARD SIMONMBSALLANCHES18:23.101:59.2
1417714/MINFFS26169381992COUDURIER JULIENMBNORD.TANINGE18:35.102:11.2
1519415/MINFFS23538891992JACOB VALENTINMBSCNP ROCHOIS18:41.902:18.0
1619716/MINFFS26200011993MUNIER REMIMBVILLARD/BOEG18:49.302:25.4
1717617/MINFFS26219451992ARMINJON MICKAELMBNORD.TANINGE18:53.302:29.4
1817018/MINFFS26047311992DEWAELE ROMAINMBLES GETS S.C18:55.402:31.5
1918419/MINFFS26215931993CHESNAIS ROMAINMBSC GD BORNAN18:56.702:32.8
2016920/MINFFS26060141993PAIS VICTORMBLES GETS S.C18:59.502:35.6
2118221/MINFFS26253581992DUPERTHUY JASONMBSC CONTAMINE19:02.002:38.1
2218622/MINFFS26155361992PRONNIER DAMIENMBSC GD BORNAN19:06.502:42.6
2316423/MINFFS23535711993PARISSE CLEMENTMBCS MEGEVE19:09.802:45.9
2415724/MINFFS26206581993OSTERBERGER THIBAULTMBCS CHAMONIX19:13.402:49.5
2519825/MINFFS23243281992CONDEVAUX NICOLASMBVILLARD/BOEG19:15.602:51.7
2616226/MINFFS26185861993AGNELLET GEOFFREYMBCS LA CLUSAZ19:34.103:10.2
2718727/MINFFS26228961993WILLIG CLEMENTMBSC GD BORNAN19:34.703:10.8
2819628/MINFFS26132851992COSTAZ REMIMBVILLARD/BOEG19:35.703:11.8
2919129/MINFFS26218771993ANDRE KEVINMBSCNP ROCHOIS19:38.603:14.7
3020030/MINFFS26219611993BITON GUILLAUMEMBVILLARD/BOEG19:40.603:16.7
3116031/MINFFS26183071993GOY KILIANMBCS LA CLUSAZ19:41.303:17.4
3218332/MINFFS23535231992MATTEL GERALDMBSC CONTAMINE19:58.103:34.2
3316833/MINFFS23539561993LE GOUIL KEVINMBDRAGONS ANNY20:01.803:37.9
3415834/MINFFS26205831993DUMONT CLEMENTMBCS CHAMONIX20:04.203:40.3
3516635/MINFFS23268011993MARIN CUDRAZ TANGUYMBCS MEGEVE20:05.003:41.1
3617436/MINFFS23234491993CHOUPIN PIERREMBLES HOUCHES20:09.703:45.8
3716737/MINFFS26240181993DOCHE BAPTISTEMBDRAGONS ANNY20:27.304:03.4
3819038/MINFFS26220071993MARSURA JEREMYMBSC MIEUSSY20:32.104:08.2
3919939/MINFFS26219601992DUBOUCHET REMYMBVILLARD/BOEG21:06.204:42.3
4018140/MINFFS23235251992MONCEAU QUENTINMBSC CONTAMINE21:35.305:11.4
4119541/MINFFS26057391993CUNY NICOLASMBSCNP ROCHOIS21:41.105:17.2
4217842/MINFFS23519491992BRUAND GUILLAUMEMBSALLANCHES21:54.105:30.2
4317543/MINFFS26219431993CHMARGOUNOF KEVINMBNORD.TANINGE21:57.805:33.9
4416344/MINFFS23535771993BARRANCA ALEXISMBCS MEGEVE22:14.805:50.9
4517145/MINFFS26136921993BRON JOSSMBLES GETS S.C22:26.506:02.6
4616546/MINFFS26176921993LE BERRE MARTINMBCS MEGEVE23:35.607:11.7
Non partants
153FFS26140661992VOUILLAMOZ SYLVAINMBCS CHAMONIX
155FFS26140681992TRICHET VICTORMBCS CHAMONIX
156FFS22626221992GOUJON ANTOINEMBCS CHAMONIX
173FFS22625891993ROBE SIMONMBLES HOUCHES